Time;durP1;ratioP1;P1;durP2;ratioP2;P2;SDS_P1;SDS_P2;PMS_P1;PMS_P2;Temp;Humidity;BMP_temperature;BMP_pressure;BME280_temperature;BME280_humidity;BME280_pressure;Samples;Min_cycle;Max_cycle;Signal;HPM_P1;HPM_P2
2021/10/08 00:00:25;;;;;;;9.50;4.53;;;12.40;99.90;;;;;;5095205;28;20191;-70
2021/10/08 00:02:50;;;;;;;5.53;5.03;;;12.40;99.90;;;;;;5095029;28;20197;-70
2021/10/08 00:05:15;;;;;;;5.70;4.37;;;12.30;99.90;;;;;;5094809;28;20664;-70
2021/10/08 00:07:41;;;;;;;6.60;4.50;;;12.30;99.90;;;;;;5095346;28;20177;-70
2021/10/08 00:10:07;;;;;;;5.03;4.33;;;12.30;99.90;;;;;;5094963;28;20641;-70
2021/10/08 00:12:33;;;;;;;7.57;4.70;;;12.20;99.90;;;;;;5094779;28;20230;-71
2021/10/08 00:15:03;;;;;;;6.50;4.80;;;12.20;99.90;;;;;;5094788;28;20494;-70
2021/10/08 00:17:28;;;;;;;8.57;5.30;;;12.10;99.90;;;;;;5094147;28;20209;-70
2021/10/08 00:19:53;;;;;;;6.77;4.97;;;12.10;99.90;;;;;;5093724;28;20415;-70
2021/10/08 00:22:19;;;;;;;7.17;5.53;;;12.10;99.90;;;;;;5093558;28;20180;-70
2021/10/08 00:24:44;;;;;;;3.97;3.67;;;12.00;99.90;;;;;;5093281;28;20243;-70
2021/10/08 00:27:10;;;;;;;5.73;4.87;;;12.00;99.90;;;;;;5093419;28;20186;-70
2021/10/08 00:29:35;;;;;;;5.43;4.90;;;11.90;99.90;;;;;;5093685;28;20208;-70
2021/10/08 00:32:01;;;;;;;6.50;5.20;;;11.90;99.90;;;;;;5093315;28;20181;-70
2021/10/08 00:34:26;;;;;;;6.03;5.00;;;12.00;99.90;;;;;;5092562;28;20174;-70
2021/10/08 00:36:52;;;;;;;7.10;4.90;;;11.90;99.90;;;;;;5091588;28;20193;-70
2021/10/08 00:39:17;;;;;;;7.43;5.80;;;11.90;99.90;;;;;;5093664;28;20204;-70
2021/10/08 00:41:43;;;;;;;7.80;5.60;;;11.80;99.90;;;;;;5094367;28;20170;-70
2021/10/08 00:44:09;;;;;;;7.03;6.00;;;11.80;99.90;;;;;;5093276;28;20181;-70
2021/10/08 00:46:35;;;;;;;7.00;4.77;;;11.80;99.90;;;;;;5094127;28;20988;-70
2021/10/08 00:49:00;;;;;;;5.57;4.90;;;11.70;99.90;;;;;;5093229;28;20161;-70
2021/10/08 00:51:26;;;;;;;4.50;4.10;;;11.70;99.90;;;;;;5093040;28;20158;-70
2021/10/08 00:53:52;;;;;;;5.90;5.30;;;11.70;99.90;;;;;;5093001;28;20177;-70
2021/10/08 00:56:22;;;;;;;7.23;4.83;;;11.70;99.90;;;;;;5093849;28;20196;-70
2021/10/08 00:58:48;;;;;;;6.07;5.47;;;11.60;99.90;;;;;;5093023;28;20548;-70
2021/10/08 01:01:18;;;;;;;6.40;5.40;;;11.60;99.90;;;;;;5092892;28;20490;-70
2021/10/08 01:03:44;;;;;;;4.20;3.60;;;11.60;99.90;;;;;;5092916;28;20411;-70
2021/10/08 01:06:10;;;;;;;6.20;5.30;;;11.50;99.90;;;;;;5087390;28;20966;-70
2021/10/08 01:08:35;;;;;;;6.17;5.57;;;11.50;99.90;;;;;;5085425;28;20411;-70
2021/10/08 01:11:02;;;;;;;7.60;6.27;;;11.50;99.90;;;;;;5079031;28;20405;-70
2021/10/08 01:13:28;;;;;;;9.80;6.17;;;11.40;99.90;;;;;;5092108;28;20189;-70
2021/10/08 01:15:54;;;;;;;6.20;5.20;;;11.40;99.90;;;;;;5072591;28;20464;-70
2021/10/08 01:18:23;;;;;;;6.40;4.63;;;11.40;99.90;;;;;;5038934;28;974437;-70
2021/10/08 01:20:48;;;;;;;5.33;4.83;;;11.30;99.90;;;;;;5073343;28;20228;-70
2021/10/08 01:23:14;;;;;;;6.17;4.33;;;11.30;99.90;;;;;;5083734;28;20860;-70
2021/10/08 01:25:39;;;;;;;7.50;5.10;;;11.30;99.90;;;;;;5092729;28;20243;-70
2021/10/08 01:28:06;;;;;;;9.17;6.37;;;11.20;99.90;;;;;;5077539;28;20171;-70
2021/10/08 01:30:32;;;;;;;5.70;4.90;;;11.30;99.90;;;;;;5073219;28;20159;-70
2021/10/08 01:32:58;;;;;;;6.70;5.47;;;11.20;99.90;;;;;;5073021;28;20401;-70
2021/10/08 01:35:24;;;;;;;7.97;5.00;;;11.30;99.90;;;;;;5072939;28;20409;-70
2021/10/08 01:37:50;;;;;;;7.10;5.27;;;11.20;99.90;;;;;;5074144;28;20174;-70
2021/10/08 01:40:16;;;;;;;6.70;4.93;;;11.20;99.90;;;;;;5082878;28;20178;-70
2021/10/08 01:42:41;;;;;;;7.47;4.93;;;11.10;99.90;;;;;;5073125;28;20174;-70
2021/10/08 01:45:08;;;;;;;6.37;5.17;;;11.10;99.90;;;;;;5073158;28;20456;-70
2021/10/08 01:47:34;;;;;;;5.40;4.80;;;11.10;99.90;;;;;;5092344;28;20186;-69
2021/10/08 01:49:59;;;;;;;7.00;6.30;;;11.10;99.90;;;;;;5093345;28;20809;-69
2021/10/08 01:52:25;;;;;;;7.93;5.40;;;11.10;99.90;;;;;;5093012;28;20219;-69
2021/10/08 01:54:50;;;;;;;8.47;6.50;;;11.10;99.90;;;;;;5092869;28;20204;-69
2021/10/08 01:57:17;;;;;;;7.73;5.50;;;11.00;99.90;;;;;;5092882;28;20743;-69
2021/10/08 01:59:43;;;;;;;8.67;7.70;;;11.00;99.90;;;;;;5092830;28;20206;-69
2021/10/08 02:02:08;;;;;;;6.90;5.60;;;10.90;99.90;;;;;;5093150;28;20423;-69
2021/10/08 02:04:33;;;;;;;8.50;5.87;;;10.90;99.90;;;;;;5092578;28;20919;-69
2021/10/08 02:06:59;;;;;;;7.63;6.40;;;10.90;99.90;;;;;;5092675;28;20212;-69
2021/10/08 02:09:27;;;;;;;7.80;5.90;;;10.90;99.90;;;;;;5093108;28;20789;-69
2021/10/08 02:11:53;;;;;;;8.10;5.17;;;10.90;99.90;;;;;;5092485;28;20181;-70
2021/10/08 02:14:18;;;;;;;6.03;5.50;;;10.80;99.90;;;;;;5092468;28;20503;-70
2021/10/08 02:16:44;;;;;;;7.27;6.53;;;10.80;99.90;;;;;;5092392;28;20185;-69
2021/10/08 02:19:10;;;;;;;8.60;6.53;;;10.80;99.90;;;;;;5092451;28;20181;-69
2021/10/08 02:21:37;;;;;;;7.07;4.80;;;10.70;99.90;;;;;;5092492;28;20204;-70
2021/10/08 02:24:03;;;;;;;8.40;5.20;;;10.70;99.90;;;;;;5092691;28;20941;-69
2021/10/08 02:26:28;;;;;;;8.40;5.90;;;10.70;99.90;;;;;;5092189;28;20451;-69
2021/10/08 02:28:54;;;;;;;8.00;5.23;;;10.70;99.90;;;;;;5092540;28;20624;-69
2021/10/08 02:31:19;;;;;;;7.23;6.53;;;10.70;99.90;;;;;;5072871;28;20177;-69
2021/10/08 02:33:45;;;;;;;5.67;4.97;;;10.70;99.90;;;;;;5071941;28;20323;-69
2021/10/08 02:36:11;;;;;;;5.37;4.83;;;10.70;99.90;;;;;;5071940;28;20190;-69
2021/10/08 02:38:37;;;;;;;9.37;6.07;;;10.60;99.90;;;;;;5072035;28;20409;-69
2021/10/08 02:41:04;;;;;;;5.27;4.67;;;10.60;99.90;;;;;;5071844;28;20174;-70
2021/10/08 02:43:29;;;;;;;7.87;7.00;;;10.60;99.90;;;;;;5071809;28;20496;-70
2021/10/08 02:45:55;;;;;;;6.87;5.50;;;10.60;99.90;;;;;;5071642;28;20993;-70
2021/10/08 02:48:20;;;;;;;9.70;5.97;;;10.50;99.90;;;;;;5071949;28;20249;-70
2021/10/08 02:50:46;;;;;;;6.30;5.30;;;10.50;99.90;;;;;;5072124;28;20653;-71
2021/10/08 02:53:12;;;;;;;8.80;5.30;;;10.50;99.90;;;;;;5071847;28;20201;-70
2021/10/08 02:55:37;;;;;;;5.90;4.37;;;10.50;99.90;;;;;;5071867;28;20194;-70
2021/10/08 02:58:03;;;;;;;5.57;4.43;;;10.50;99.90;;;;;;5071794;28;20444;-70
2021/10/08 03:00:29;;;;;;;7.03;4.90;;;10.40;99.90;;;;;;5071673;28;20617;-70
2021/10/08 03:02:54;;;;;;;6.87;5.37;;;10.40;99.90;;;;;;5071812;28;20177;-70
2021/10/08 03:05:20;;;;;;;9.33;5.10;;;10.40;99.90;;;;;;5071523;28;20525;-70
2021/10/08 03:07:45;;;;;;;8.47;5.37;;;10.40;99.90;;;;;;5070515;28;20170;-70
2021/10/08 03:10:15;;;;;;;10.70;5.83;;;10.40;99.90;;;;;;5071900;28;20167;-70
2021/10/08 03:12:41;;;;;;;7.53;6.40;;;10.40;99.90;;;;;;5071752;28;20170;-70
2021/10/08 03:15:07;;;;;;;7.43;5.63;;;10.40;99.90;;;;;;5071736;28;20408;-70
2021/10/08 03:17:33;;;;;;;12.47;6.60;;;10.40;99.90;;;;;;5071555;28;20915;-70
2021/10/08 03:19:58;;;;;;;10.03;5.60;;;10.40;99.90;;;;;;5071747;28;20458;-70
2021/10/08 03:22:24;;;;;;;10.60;6.47;;;10.50;99.90;;;;;;5071604;28;20264;-70
2021/10/08 03:24:49;;;;;;;10.00;6.87;;;10.50;99.90;;;;;;5071526;28;20186;-70
2021/10/08 03:27:14;;;;;;;10.63;6.27;;;10.50;99.90;;;;;;5070891;28;20193;-70
2021/10/08 03:29:40;;;;;;;10.07;7.20;;;10.50;99.90;;;;;;5070683;28;20174;-71
2021/10/08 03:32:06;;;;;;;7.90;5.40;;;10.50;99.90;;;;;;5071421;28;20253;-70
2021/10/08 03:34:31;;;;;;;10.10;6.70;;;10.50;99.90;;;;;;5071548;28;20174;-70
2021/10/08 03:36:59;;;;;;;7.63;5.37;;;10.40;99.90;;;;;;5071452;28;21134;-70
2021/10/08 03:39:27;;;;;;;9.60;5.47;;;10.40;99.90;;;;;;5071623;28;20197;-70
2021/10/08 03:41:53;;;;;;;9.50;5.67;;;10.40;99.90;;;;;;5071334;28;20409;-69
2021/10/08 03:44:20;;;;;;;9.80;6.47;;;10.40;99.90;;;;;;5071181;28;20489;-70
2021/10/08 03:46:51;;;;;;;10.20;6.90;;;10.30;99.90;;;;;;5071287;28;20499;-70
2021/10/08 03:49:18;;;;;;;6.17;4.57;;;10.30;99.90;;;;;;5071501;28;20443;-70
2021/10/08 03:51:47;;;;;;;10.40;6.10;;;10.30;99.90;;;;;;5071214;28;20408;-70
2021/10/08 03:54:14;;;;;;;10.70;7.03;;;10.30;99.90;;;;;;5071269;28;20771;-70
2021/10/08 03:56:40;;;;;;;9.93;7.63;;;10.30;99.90;;;;;;5071207;28;20475;-70
2021/10/08 03:59:07;;;;;;;7.37;5.50;;;10.30;99.90;;;;;;5071213;28;20432;-70
2021/10/08 04:01:33;;;;;;;11.20;5.93;;;10.30;99.90;;;;;;5071164;28;20443;-70
2021/10/08 04:03:58;;;;;;;11.70;6.40;;;10.30;99.90;;;;;;5071171;28;20474;-70
2021/10/08 04:06:24;;;;;;;12.07;8.20;;;10.30;99.90;;;;;;5071156;28;20456;-70
2021/10/08 04:08:50;;;;;;;10.90;7.40;;;10.40;99.90;;;;;;5071562;28;20249;-70
2021/10/08 04:11:15;;;;;;;14.57;8.97;;;10.40;99.90;;;;;;5074689;28;20249;-70
2021/10/08 04:13:41;;;;;;;15.23;7.57;;;10.40;99.90;;;;;;5074598;28;20871;-70
2021/10/08 04:16:06;;;;;;;11.63;6.73;;;10.50;99.90;;;;;;5074630;28;20197;-70
2021/10/08 04:18:33;;;;;;;12.60;8.00;;;10.50;99.90;;;;;;5074506;28;20273;-70
2021/10/08 04:20:59;;;;;;;14.20;8.57;;;10.60;99.90;;;;;;5074435;28;20239;-70
2021/10/08 04:23:24;;;;;;;14.17;9.17;;;10.60;99.90;;;;;;5074455;28;20417;-70
2021/10/08 04:25:50;;;;;;;15.80;9.60;;;10.60;99.90;;;;;;5074180;28;20449;-70
2021/10/08 04:28:15;;;;;;;20.17;8.87;;;10.60;99.90;;;;;;5074423;28;20621;-70
2021/10/08 04:30:41;;;;;;;18.33;9.80;;;10.60;99.90;;;;;;5074459;28;20174;-70
2021/10/08 04:33:21;;;;;;;18.00;10.47;;;10.60;99.90;;;;;;5074289;28;20170;-70
2021/10/08 04:35:47;;;;;;;17.47;11.20;;;10.60;99.90;;;;;;5074170;28;20197;-70
2021/10/08 04:38:15;;;;;;;17.33;10.37;;;10.60;99.90;;;;;;5074181;28;20400;-70
2021/10/08 04:40:41;;;;;;;16.90;10.50;;;10.70;99.90;;;;;;5074166;28;20253;-70
2021/10/08 04:43:07;;;;;;;18.63;9.33;;;10.70;99.90;;;;;;5074054;28;20419;-70
2021/10/08 04:45:33;;;;;;;14.57;8.10;;;10.70;99.90;;;;;;5074088;28;20506;-70
2021/10/08 04:47:59;;;;;;;14.67;9.17;;;10.70;99.90;;;;;;5074173;28;20198;-70
2021/10/08 04:50:25;;;;;;;20.73;12.70;;;10.70;99.90;;;;;;5074304;28;20439;-70
2021/10/08 04:52:51;;;;;;;14.67;8.67;;;10.70;99.90;;;;;;5073951;28;20159;-70
2021/10/08 04:55:17;;;;;;;19.53;11.43;;;10.70;99.90;;;;;;5074012;28;20913;-70
2021/10/08 04:57:42;;;;;;;18.23;10.40;;;10.70;99.90;;;;;;5073949;28;20202;-70
2021/10/08 05:00:08;;;;;;;16.67;9.50;;;10.70;99.90;;;;;;5073964;28;20201;-70
2021/10/08 05:02:34;;;;;;;18.03;10.90;;;10.70;99.90;;;;;;5073807;28;20173;-70
2021/10/08 05:05:00;;;;;;;15.80;9.70;;;10.70;99.90;;;;;;5073718;28;21084;-70
2021/10/08 05:07:25;;;;;;;15.27;8.60;;;10.70;99.90;;;;;;5073685;28;20432;-70
2021/10/08 05:09:51;;;;;;;18.13;10.03;;;10.70;99.90;;;;;;5073704;28;20304;-70
2021/10/08 05:12:17;;;;;;;19.53;11.10;;;10.70;99.90;;;;;;5073492;28;20185;-70
2021/10/08 05:14:42;;;;;;;17.60;10.70;;;10.70;99.90;;;;;;5073461;28;20170;-71
2021/10/08 05:17:08;;;;;;;22.43;12.07;;;10.70;99.90;;;;;;5073482;28;20301;-70
2021/10/08 05:19:33;;;;;;;16.63;9.33;;;10.60;99.90;;;;;;5073564;28;20547;-70
2021/10/08 05:21:59;;;;;;;14.83;10.90;;;10.70;99.90;;;;;;5072179;28;20221;-70
2021/10/08 05:24:24;;;;;;;14.57;9.70;;;10.70;99.90;;;;;;5073186;28;20174;-71
2021/10/08 05:26:50;;;;;;;19.40;10.87;;;10.60;99.90;;;;;;5073274;28;20198;-70
2021/10/08 05:29:16;;;;;;;15.43;9.47;;;10.70;99.90;;;;;;5073437;28;20200;-70
2021/10/08 05:31:42;;;;;;;13.97;10.17;;;10.60;99.90;;;;;;5073215;28;20170;-70
2021/10/08 05:34:07;;;;;;;21.33;10.67;;;10.60;99.90;;;;;;5073178;28;20217;-70
2021/10/08 05:36:33;;;;;;;18.63;11.30;;;10.60;99.90;;;;;;5073229;28;20723;-70
2021/10/08 05:38:58;;;;;;;20.10;11.00;;;10.60;99.90;;;;;;5073080;28;20206;-70
2021/10/08 05:41:24;;;;;;;18.60;10.30;;;10.60;99.90;;;;;;5072836;28;20175;-70
2021/10/08 05:43:49;;;;;;;15.60;10.60;;;10.60;99.90;;;;;;5072919;28;20178;-70
2021/10/08 05:46:15;;;;;;;19.83;12.23;;;10.50;99.90;;;;;;5072739;28;20213;-70
2021/10/08 05:48:40;;;;;;;13.20;10.23;;;10.50;99.90;;;;;;5073014;28;20249;-70
2021/10/08 05:51:06;;;;;;;25.30;11.43;;;10.50;99.90;;;;;;5072968;28;20231;-70
2021/10/08 05:53:31;;;;;;;17.60;12.43;;;10.50;99.90;;;;;;5072949;28;20527;-70
2021/10/08 05:55:57;;;;;;;17.67;10.33;;;10.50;99.90;;;;;;5072714;28;20190;-70
2021/10/08 05:58:22;;;;;;;19.53;10.87;;;10.50;99.90;;;;;;5072856;28;20166;-70
2021/10/08 06:00:47;;;;;;;19.37;11.77;;;10.50;99.90;;;;;;5072668;28;20257;-70
2021/10/08 06:03:13;;;;;;;17.73;10.17;;;10.50;99.90;;;;;;5072611;28;20171;-70
2021/10/08 06:05:39;;;;;;;21.97;11.43;;;10.50;99.90;;;;;;5072570;28;20206;-72
2021/10/08 06:08:06;;;;;;;18.50;11.00;;;10.60;99.90;;;;;;5072494;28;20922;-72
2021/10/08 06:10:32;;;;;;;14.80;10.43;;;10.60;99.90;;;;;;5072489;28;20810;-71
2021/10/08 06:12:57;;;;;;;18.33;9.77;;;10.60;99.90;;;;;;5072738;28;20400;-70
2021/10/08 06:15:23;;;;;;;13.30;8.50;;;10.70;99.90;;;;;;5072581;28;20193;-70
2021/10/08 06:17:48;;;;;;;20.57;11.00;;;10.70;99.90;;;;;;5072436;28;20190;-71
2021/10/08 06:20:14;;;;;;;16.17;10.43;;;10.70;99.90;;;;;;5079655;28;20644;-70
2021/10/08 06:22:40;;;;;;;19.13;12.37;;;10.80;99.90;;;;;;5105476;28;20659;-70
2021/10/08 06:25:07;;;;;;;15.77;10.73;;;10.80;99.90;;;;;;5082037;28;20664;-70
2021/10/08 06:27:33;;;;;;;22.73;13.63;;;10.90;99.90;;;;;;5092277;28;20453;-70
2021/10/08 06:29:59;;;;;;;17.77;12.10;;;11.30;99.90;;;;;;5114469;28;20432;-70
2021/10/08 06:32:25;;;;;;;20.70;11.80;;;11.50;99.90;;;;;;5107933;28;20407;-71
2021/10/08 06:34:51;;;;;;;15.93;11.20;;;11.60;99.90;;;;;;5095939;28;20166;-71
2021/10/08 06:37:16;;;;;;;17.70;11.00;;;11.50;99.90;;;;;;5105102;28;20196;-70
2021/10/08 06:39:42;;;;;;;16.17;9.50;;;11.60;99.90;;;;;;5095792;28;20184;-70
2021/10/08 06:42:08;;;;;;;15.53;10.13;;;12.00;99.90;;;;;;5074203;28;20174;-71
2021/10/08 06:44:33;;;;;;;13.30;8.90;;;12.20;99.90;;;;;;5071744;28;20178;-71
2021/10/08 06:46:59;;;;;;;12.90;9.77;;;12.40;99.90;;;;;;5071747;28;20213;-71
2021/10/08 06:49:25;;;;;;;15.43;9.50;;;12.40;99.90;;;;;;5071983;28;20169;-71
2021/10/08 06:51:51;;;;;;;16.87;8.27;;;12.20;99.90;;;;;;5071769;28;20934;-71
2021/10/08 06:54:16;;;;;;;14.33;9.30;;;12.20;99.90;;;;;;5080422;28;20640;-71
2021/10/08 06:56:42;;;;;;;16.37;9.40;;;12.10;99.90;;;;;;5071830;28;20436;-71
2021/10/08 06:59:07;;;;;;;15.33;8.97;;;12.00;99.90;;;;;;5088972;28;20217;-71
2021/10/08 07:01:32;;;;;;;13.97;9.90;;;12.10;99.90;;;;;;5091799;28;20588;-71
2021/10/08 07:03:58;;;;;;;19.50;10.40;;;12.50;99.90;;;;;;5091998;28;20176;-71
2021/10/08 07:06:24;;;;;;;13.83;9.60;;;13.10;99.90;;;;;;5092104;28;20209;-70
2021/10/08 07:08:49;;;;;;;14.50;9.60;;;14.00;99.90;;;;;;5092197;28;20170;-71
2021/10/08 07:11:15;;;;;;;14.67;9.77;;;13.90;99.90;;;;;;5092147;28;20235;-71
2021/10/08 07:13:40;;;;;;;12.77;9.40;;;13.60;99.90;;;;;;5091925;28;20622;-70
2021/10/08 07:16:06;;;;;;;11.13;8.10;;;13.60;99.90;;;;;;5092422;28;20201;-70
2021/10/08 07:18:35;;;;;;;12.30;9.40;;;13.40;99.90;;;;;;5091955;28;20197;-70
2021/10/08 07:21:02;;;;;;;11.40;9.20;;;13.50;99.90;;;;;;5091821;28;20166;-71
2021/10/08 07:23:27;;;;;;;10.37;7.50;;;13.10;99.90;;;;;;5091433;28;20408;-71
2021/10/08 07:25:53;;;;;;;10.20;7.90;;;13.00;99.90;;;;;;5091698;28;20495;-71
2021/10/08 07:28:20;;;;;;;11.50;9.30;;;13.00;99.90;;;;;;5091665;28;20170;-71
2021/10/08 07:30:46;;;;;;;11.77;8.60;;;13.00;99.90;;;;;;5091144;28;20170;-72
2021/10/08 07:33:13;;;;;;;13.33;8.80;;;12.90;99.90;;;;;;5091326;28;20396;-72
2021/10/08 07:35:38;;;;;;;12.80;8.20;;;12.90;99.90;;;;;;5091261;28;21137;-72
2021/10/08 07:38:04;;;;;;;17.03;10.33;;;12.90;99.90;;;;;;5091615;28;20404;-71
2021/10/08 07:40:30;;;;;;;11.87;8.30;;;12.80;99.90;;;;;;5091618;28;20197;-72
2021/10/08 07:42:55;;;;;;;14.73;10.10;;;12.90;99.90;;;;;;5091172;28;20169;-72
2021/10/08 07:45:21;;;;;;;15.37;10.20;;;13.00;99.90;;;;;;5094228;28;20481;-71
2021/10/08 07:47:46;;;;;;;14.67;9.90;;;12.90;99.90;;;;;;5095650;28;20189;-72
2021/10/08 07:50:14;;;;;;;13.60;9.37;;;12.90;99.90;;;;;;5095421;28;20166;-72
2021/10/08 07:52:40;;;;;;;15.67;9.00;;;12.90;99.90;;;;;;5094159;28;20640;-71
2021/10/08 07:55:07;;;;;;;13.33;8.57;;;12.90;99.90;;;;;;5095517;28;20434;-72
2021/10/08 07:57:32;;;;;;;12.93;8.40;;;13.70;99.90;;;;;;5085757;28;20515;-72
2021/10/08 07:59:58;;;;;;;13.87;10.70;;;14.20;99.90;;;;;;5095437;28;20958;-72
2021/10/08 08:02:23;;;;;;;11.03;8.03;;;14.60;99.90;;;;;;5093969;28;20162;-72
2021/10/08 08:04:50;;;;;;;14.70;9.10;;;15.10;99.90;;;;;;5095067;28;20196;-71
2021/10/08 08:07:15;;;;;;;11.90;8.60;;;15.50;99.90;;;;;;5079935;28;20207;-72
2021/10/08 08:09:41;;;;;;;11.33;9.37;;;15.70;99.90;;;;;;5073744;28;20427;-72
2021/10/08 08:12:06;;;;;;;8.47;7.47;;;15.90;99.90;;;;;;5073546;28;20218;-72
2021/10/08 08:14:32;;;;;;;10.60;9.50;;;16.40;99.90;;;;;;5075001;28;20169;-70
2021/10/08 08:16:57;;;;;;;12.63;8.50;;;16.90;99.90;;;;;;5074821;28;20195;-70
2021/10/08 08:19:23;;;;;;;10.73;7.80;;;17.20;99.90;;;;;;5073586;28;20176;-70
2021/10/08 08:21:49;;;;;;;10.97;9.60;;;17.70;99.90;;;;;;5074583;28;20204;-69
2021/10/08 08:24:14;;;;;;;11.47;8.80;;;18.00;99.90;;;;;;5074514;28;20166;-70
2021/10/08 08:26:39;;;;;;;10.33;8.37;;;17.50;99.90;;;;;;5093331;28;20204;-70
2021/10/08 08:29:05;;;;;;;15.13;10.53;;;16.90;99.90;;;;;;5108486;28;20175;-70
2021/10/08 08:31:32;;;;;;;9.60;8.60;;;16.70;99.90;;;;;;5104442;28;20159;-70
2021/10/08 08:33:57;;;;;;;11.13;8.20;;;16.80;99.90;;;;;;5095139;28;20484;-70
2021/10/08 08:36:23;;;;;;;11.70;8.17;;;16.80;99.90;;;;;;5094587;28;20965;-70
2021/10/08 08:38:49;;;;;;;8.63;7.73;;;16.90;99.90;;;;;;5094667;28;20165;-70
2021/10/08 08:41:14;;;;;;;9.00;7.27;;;17.00;99.90;;;;;;5094376;28;20166;-70
2021/10/08 08:43:40;;;;;;;8.93;7.17;;;17.20;99.90;;;;;;5094768;28;20411;-71
2021/10/08 08:46:05;;;;;;;11.20;7.70;;;17.40;99.90;;;;;;5094273;28;20208;-70
2021/10/08 08:48:31;;;;;;;10.00;7.60;;;18.00;99.90;;;;;;5093575;28;20163;-70
2021/10/08 08:50:56;;;;;;;9.13;7.60;;;18.00;99.90;;;;;;5094271;28;20163;-70
2021/10/08 08:53:23;;;;;;;9.13;7.30;;;17.70;99.90;;;;;;5094195;28;20160;-70
2021/10/08 08:55:50;;;;;;;8.90;7.13;;;17.80;99.90;;;;;;5093848;28;20195;-70
2021/10/08 08:58:18;;;;;;;8.67;7.87;;;18.00;99.90;;;;;;5094248;28;20412;-70
2021/10/08 09:00:46;;;;;;;8.27;6.90;;;18.20;99.90;;;;;;5093800;28;20415;-71
2021/10/08 09:03:16;;;;;;;10.07;6.90;;;18.40;99.90;;;;;;5094137;28;20416;-71
2021/10/08 09:05:46;;;;;;;8.33;7.47;;;18.20;99.90;;;;;;5093817;28;20826;-70
2021/10/08 09:08:13;;;;;;;7.83;5.70;;;18.00;99.90;;;;;;5094331;28;20834;-70
2021/10/08 09:10:42;;;;;;;9.40;6.67;;;18.00;99.90;;;;;;5094062;28;20411;-70
2021/10/08 09:13:07;;;;;;;11.10;7.03;;;17.60;99.90;;;;;;5093766;28;20417;-70
2021/10/08 09:15:55;;;;;;;8.63;6.43;;;17.40;99.90;;;;;;5094025;28;20479;-70
2021/10/08 09:18:23;;;;;;;7.53;6.17;;;17.60;99.90;;;;;;5093950;28;20270;-70
2021/10/08 09:21:13;;;;;;;9.67;6.47;;;17.70;99.90;;;;;;5093660;28;20411;-70
2021/10/08 09:23:46;;;;;;;7.17;5.47;;;17.70;99.90;;;;;;5094271;28;20459;-70
2021/10/08 09:26:21;;;;;;;10.20;6.70;;;17.70;99.90;;;;;;5093590;28;20981;-69
2021/10/08 09:29:16;;;;;;;7.30;6.60;;;17.70;99.90;;;;;;5093896;28;20425;-70
2021/10/08 09:31:43;;;;;;;8.30;6.27;;;17.40;99.90;;;;;;5088698;28;20409;-72
2021/10/08 09:34:10;;;;;;;7.33;5.83;;;17.30;99.90;;;;;;5093513;28;20777;-71
2021/10/08 09:36:37;;;;;;;6.07;5.03;;;17.00;99.90;;;;;;5093060;28;20514;-72
2021/10/08 09:39:19;;;;;;;5.07;4.57;;;16.80;99.90;;;;;;5092077;28;20415;-71
2021/10/08 09:41:47;;;;;;;4.70;4.10;;;16.30;99.90;;;;;;5093320;28;20402;-71
2021/10/08 09:44:12;;;;;;;7.77;5.20;;;15.90;99.90;;;;;;5087461;28;20497;-71
2021/10/08 09:46:38;;;;;;;5.80;5.27;;;15.90;99.90;;;;;;5092770;28;20483;-71
2021/10/08 09:49:03;;;;;;;7.77;4.53;;;16.10;99.90;;;;;;5093309;28;20726;-72
2021/10/08 09:51:30;;;;;;;6.17;4.27;;;16.20;99.90;;;;;;5093259;28;20161;-71
2021/10/08 09:53:55;;;;;;;4.90;4.40;;;16.40;99.90;;;;;;5093189;28;20650;-71
2021/10/08 09:56:57;;;;;;;5.70;4.03;;;16.40;99.90;;;;;;5093152;28;20430;-71
2021/10/08 09:59:38;;;;;;;3.20;2.90;;;16.30;99.90;;;;;;5092031;28;20172;-74
2021/10/08 10:02:04;;;;;;;7.17;4.83;;;16.20;99.90;;;;;;5092956;28;20484;-71
2021/10/08 10:05:04;;;;;;;6.70;4.40;;;16.10;99.90;;;;;;5092953;28;20452;-70
2021/10/08 10:07:30;;;;;;;4.67;3.40;;;15.90;99.90;;;;;;5083222;28;20461;-70
2021/10/08 10:09:56;;;;;;;5.57;3.77;;;15.80;99.90;;;;;;5092719;28;20405;-70
2021/10/08 10:12:21;;;;;;;5.30;3.93;;;15.70;99.90;;;;;;5092708;28;20405;-70
2021/10/08 10:14:49;;;;;;;6.00;4.13;;;15.70;99.90;;;;;;5092544;28;20717;-71
2021/10/08 10:17:16;;;;;;;7.07;3.60;;;15.60;99.90;;;;;;5092572;28;20194;-70
2021/10/08 10:19:45;;;;;;;4.03;3.47;;;15.60;99.90;;;;;;5092717;28;20404;-70
2021/10/08 10:22:16;;;;;;;5.80;4.20;;;15.60;99.90;;;;;;5092405;28;20758;-71
2021/10/08 10:24:43;;;;;;;5.70;5.10;;;15.60;99.90;;;;;;5092215;28;20450;-70
2021/10/08 10:27:12;;;;;;;6.70;4.73;;;15.60;99.90;;;;;;5092591;28;20834;-69
2021/10/08 10:29:39;;;;;;;6.50;4.10;;;15.60;99.90;;;;;;5091938;28;20416;-70
2021/10/08 10:32:07;;;;;;;4.77;3.83;;;15.70;99.90;;;;;;5091952;28;20464;-69
2021/10/08 10:34:37;;;;;;;8.27;4.10;;;15.90;99.90;;;;;;5092127;28;20408;-70
2021/10/08 10:37:04;;;;;;;4.67;3.73;;;16.00;99.90;;;;;;5092049;28;20432;-69
2021/10/08 10:39:29;;;;;;;6.50;4.20;;;15.90;99.90;;;;;;5092295;28;20412;-69
2021/10/08 10:42:15;;;;;;;6.63;4.47;;;15.90;99.90;;;;;;5092222;28;20880;-69
2021/10/08 10:45:05;;;;;;;6.20;4.60;;;15.80;99.90;;;;;;5091980;28;20264;-69
2021/10/08 10:47:34;;;;;;;5.50;4.47;;;16.00;99.90;;;;;;5092004;28;20436;-70
2021/10/08 10:50:25;;;;;;;5.40;4.20;;;16.20;99.90;;;;;;5092164;28;20399;-68
2021/10/08 10:52:56;;;;;;;3.80;3.40;;;16.10;99.90;;;;;;5092143;28;20765;-69
2021/10/08 10:55:23;;;;;;;5.90;3.37;;;15.90;99.90;;;;;;5091828;28;20393;-69
2021/10/08 10:58:11;;;;;;;7.60;4.97;;;16.00;99.90;;;;;;5091905;28;20455;-69
2021/10/08 11:00:41;;;;;;;5.70;4.30;;;16.20;99.90;;;;;;5091626;28;20411;-69
2021/10/08 11:03:18;;;;;;;7.83;5.17;;;16.30;99.90;;;;;;5092003;28;20396;-70
2021/10/08 11:06:07;;;;;;;9.23;6.93;;;16.40;99.90;;;;;;5091786;28;20494;-69
2021/10/08 11:08:33;;;;;;;4.00;3.37;;;16.30;99.90;;;;;;5091728;28;20400;-69
2021/10/08 11:10:58;;;;;;;8.87;4.50;;;16.30;99.90;;;;;;5091801;28;20397;-69
2021/10/08 11:13:29;;;;;;;5.63;3.83;;;16.10;99.90;;;;;;5091771;28;20204;-69
2021/10/08 11:16:00;;;;;;;5.33;4.00;;;16.00;99.90;;;;;;5091918;28;20405;-69
2021/10/08 11:18:42;;;;;;;6.73;4.00;;;16.10;99.90;;;;;;5092957;28;20423;-69
2021/10/08 11:21:28;;;;;;;4.10;3.70;;;16.10;99.90;;;;;;5095982;28;20435;-70
2021/10/08 11:24:11;;;;;;;4.90;3.40;;;16.30;99.90;;;;;;5091977;28;20405;-68
2021/10/08 11:26:38;;;;;;;4.23;3.70;;;16.20;99.90;;;;;;5095703;28;20980;-70
2021/10/08 11:29:04;;;;;;;4.93;3.17;;;16.20;99.90;;;;;;5096067;28;20941;-69
2021/10/08 11:31:29;;;;;;;5.23;4.73;;;16.20;99.90;;;;;;5095819;28;20402;-70
2021/10/08 11:33:55;;;;;;;4.23;3.80;;;16.30;99.90;;;;;;5095558;28;20220;-69
2021/10/08 11:36:29;;;;;;;4.40;3.80;;;16.30;99.90;;;;;;5095730;28;20189;-69
2021/10/08 11:39:16;;;;;;;5.00;4.50;;;16.20;99.90;;;;;;5095705;28;20234;-69
2021/10/08 11:42:14;;;;;;;4.37;3.90;;;16.10;99.90;;;;;;5095868;28;20396;-69
2021/10/08 11:47:30;;;;;;;4.90;3.90;;;16.20;99.90;;;;;;5095404;28;21017;-70
2021/10/08 11:52:45;;;;;;;5.20;4.40;;;16.20;99.90;;;;;;5095673;28;20454;-69
2021/10/08 11:55:22;;;;;;;4.70;3.80;;;16.20;99.90;;;;;;5094012;28;20498;-69
2021/10/08 11:57:53;;;;;;;7.23;3.93;;;16.20;99.90;;;;;;5095374;28;20844;-69
2021/10/08 12:00:20;;;;;;;7.90;4.57;;;16.30;99.90;;;;;;5095139;28;20407;-69
2021/10/08 12:03:00;;;;;;;4.20;3.80;;;16.40;99.90;;;;;;5095119;28;20407;-66
2021/10/08 12:05:38;;;;;;;5.70;4.40;;;16.50;99.90;;;;;;5094875;28;20446;-66
2021/10/08 12:08:04;;;;;;;4.17;3.77;;;16.50;99.90;;;;;;5095314;28;20432;-70
2021/10/08 12:10:29;;;;;;;5.07;3.50;;;16.50;99.90;;;;;;5094955;28;20433;-69
2021/10/08 12:12:57;;;;;;;4.27;3.30;;;16.50;99.90;;;;;;5094992;28;20170;-69
2021/10/08 12:15:30;;;;;;;10.70;4.70;;;16.40;99.90;;;;;;5094813;28;20175;-71
2021/10/08 12:17:59;;;;;;;6.93;4.17;;;16.50;99.90;;;;;;5094997;28;20428;-69
2021/10/08 12:20:27;;;;;;;5.63;4.07;;;16.50;99.90;;;;;;5094971;28;20409;-69
2021/10/08 12:23:15;;;;;;;5.30;4.00;;;16.40;99.90;;;;;;5094576;28;20401;-68
2021/10/08 12:25:42;;;;;;;4.67;4.13;;;16.50;99.90;;;;;;5094350;28;20464;-69
2021/10/08 12:28:14;;;;;;;4.20;3.80;;;16.50;99.90;;;;;;5094548;28;20438;-69
2021/10/08 12:30:55;;;;;;;3.00;2.67;;;16.60;99.90;;;;;;5093719;28;20782;-69
2021/10/08 12:33:25;;;;;;;7.87;4.30;;;16.60;99.90;;;;;;5094734;28;20408;-71
2021/10/08 12:36:22;;;;;;;5.87;4.47;;;16.60;99.90;;;;;;5094617;28;21017;-69
2021/10/08 12:38:52;;;;;;;4.53;4.13;;;16.70;99.90;;;;;;5094417;28;20418;-71
2021/10/08 12:41:41;;;;;;;5.77;4.20;;;16.80;99.90;;;;;;5094116;28;20429;-70
2021/10/08 12:44:19;;;;;;;9.93;3.73;;;16.70;99.90;;;;;;5093893;28;20409;-70
2021/10/08 12:49:50;;;;;;;4.93;3.70;;;16.70;99.90;;;;;;5094440;28;20501;-68
2021/10/08 12:52:29;;;;;;;3.60;3.10;;;16.80;99.90;;;;;;5093538;28;20416;-68